sensor_id;sensor_type;location;lat;lon;timestamp;pressure;altitude;pressure_sealevel;temperature;humidity
38197;BME280;26543;51.976;4.616;2022-10-17T00:00:04;52825.13;;;-140.72;100.00
38197;BME280;26543;51.976;4.616;2022-10-17T00:02:30;52849.47;;;-140.72;100.00
38197;BME280;26543;51.976;4.616;2022-10-17T00:04:56;52845.41;;;-140.72;100.00
38197;BME280;26543;51.976;4.616;2022-10-17T00:07:21;52861.66;;;-140.72;100.00
38197;BME280;26543;51.976;4.616;2022-10-17T00:09:47;52825.13;;;-140.72;100.00
38197;BME280;26543;51.976;4.616;2022-10-17T00:12:12;52881.94;;;-140.72;100.00
38197;BME280;26543;51.976;4.616;2022-10-17T00:14:38;52843.38;;;-140.72;100.00
38197;BME280;26543;51.976;4.616;2022-10-17T00:17:03;52847.44;;;-140.72;100.00
38197;BME280;26543;51.976;4.616;2022-10-17T00:19:29;52849.47;;;-140.72;100.00
38197;BME280;26543;51.976;4.616;2022-10-17T00:21:54;52867.72;;;-140.72;100.00
38197;BME280;26543;51.976;4.616;2022-10-17T00:24:29;52841.34;;;-140.72;100.00
38197;BME280;26543;51.976;4.616;2022-10-17T00:26:54;52863.66;;;-140.72;100.00
38197;BME280;26543;51.976;4.616;2022-10-17T00:29:23;52871.78;;;-140.72;100.00
38197;BME280;26543;51.976;4.616;2022-10-17T00:31:48;52865.69;;;-140.72;100.00
38197;BME280;26543;51.976;4.616;2022-10-17T00:34:13;52867.72;;;-140.72;100.00
38197;BME280;26543;51.976;4.616;2022-10-17T00:36:39;52871.78;;;-140.72;100.00
38197;BME280;26543;51.976;4.616;2022-10-17T00:39:04;52865.69;;;-140.72;100.00
38197;BME280;26543;51.976;4.616;2022-10-17T00:41:32;52871.78;;;-140.72;100.00
38197;BME280;26543;51.976;4.616;2022-10-17T00:47:01;52898.16;;;-140.72;100.00
38197;BME280;26543;51.976;4.616;2022-10-17T00:49:30;52861.66;;;-140.72;100.00
38197;BME280;26543;51.976;4.616;2022-10-17T00:51:59;52845.41;;;-140.72;100.00
38197;BME280;26543;51.976;4.616;2022-10-17T00:54:33;52833.22;;;-140.72;100.00
38197;BME280;26543;51.976;4.616;2022-10-17T00:57:00;52904.25;;;-140.72;100.00
38197;BME280;26543;51.976;4.616;2022-10-17T00:59:27;52843.38;;;-140.72;100.00
38197;BME280;26543;51.976;4.616;2022-10-17T01:01:59;52871.78;;;-140.72;100.00
38197;BME280;26543;51.976;4.616;2022-10-17T01:04:25;52883.97;;;-140.72;100.00
38197;BME280;26543;51.976;4.616;2022-10-17T01:06:51;52875.84;;;-140.72;100.00
38197;BME280;26543;51.976;4.616;2022-10-17T01:09:19;52827.16;;;-140.72;100.00
38197;BME280;26543;51.976;4.616;2022-10-17T01:12:08;52855.56;;;-140.72;100.00
38197;BME280;26543;51.976;4.616;2022-10-17T01:15:12;52837.28;;;-140.72;100.00
38197;BME280;26543;51.976;4.616;2022-10-17T01:31:36;52827.16;;;-140.72;100.00
38197;BME280;26543;51.976;4.616;2022-10-17T01:34:16;52875.84;;;-140.72;100.00
38197;BME280;26543;51.976;4.616;2022-10-17T01:36:56;52869.75;;;-140.72;100.00
38197;BME280;26543;51.976;4.616;2022-10-17T01:40:08;52861.66;;;-140.72;100.00
38197;BME280;26543;51.976;4.616;2022-10-17T01:42:34;52841.34;;;-140.72;100.00
38197;BME280;26543;51.976;4.616;2022-10-17T01:47:30;52835.25;;;-140.72;100.00
38197;BME280;26543;51.976;4.616;2022-10-17T01:50:02;52857.59;;;-140.72;100.00
38197;BME280;26543;51.976;4.616;2022-10-17T01:52:34;52865.69;;;-140.72;100.00
38197;BME280;26543;51.976;4.616;2022-10-17T01:55:10;52875.84;;;-140.72;100.00
38197;BME280;26543;51.976;4.616;2022-10-17T01:57:45;52853.53;;;-140.72;100.00
38197;BME280;26543;51.976;4.616;2022-10-17T02:00:19;52855.56;;;-140.72;100.00
38197;BME280;26543;51.976;4.616;2022-10-17T02:02:47;52837.28;;;-140.72;100.00
38197;BME280;26543;51.976;4.616;2022-10-17T02:05:13;52869.75;;;-140.72;100.00
38197;BME280;26543;51.976;4.616;2022-10-17T02:07:40;52853.53;;;-140.72;100.00
38197;BME280;26543;51.976;4.616;2022-10-17T02:10:15;52847.44;;;-140.72;100.00
38197;BME280;26543;51.976;4.616;2022-10-17T02:13:07;52804.81;;;-140.72;100.00
38197;BME280;26543;51.976;4.616;2022-10-17T02:18:46;52847.44;;;-140.72;100.00
38197;BME280;26543;51.976;4.616;2022-10-17T02:21:25;52831.19;;;-140.72;100.00
38197;BME280;26543;51.976;4.616;2022-10-17T02:26:40;52879.91;;;-140.72;100.00
38197;BME280;26543;51.976;4.616;2022-10-17T02:29:13;52829.19;;;-140.72;100.00
38197;BME280;26543;51.976;4.616;2022-10-17T02:31:53;52796.72;;;-140.72;100.00
38197;BME280;26543;51.976;4.616;2022-10-17T02:34:35;52847.44;;;-140.72;100.00
38197;BME280;26543;51.976;4.616;2022-10-17T02:37:04;52831.19;;;-140.72;100.00
38197;BME280;26543;51.976;4.616;2022-10-17T02:39:31;52865.69;;;-140.72;100.00
38197;BME280;26543;51.976;4.616;2022-10-17T02:42:01;52857.59;;;-140.72;100.00
38197;BME280;26543;51.976;4.616;2022-10-17T02:44:29;52883.97;;;-140.72;100.00
38197;BME280;26543;51.976;4.616;2022-10-17T02:47:26;52861.66;;;-140.72;100.00
38197;BME280;26543;51.976;4.616;2022-10-17T02:49:55;52833.22;;;-140.72;100.00
38197;BME280;26543;51.976;4.616;2022-10-17T02:52:27;52829.19;;;-140.72;100.00
38197;BME280;26543;51.976;4.616;2022-10-17T02:57:43;52827.16;;;-140.72;100.00
38197;BME280;26543;51.976;4.616;2022-10-17T03:00:12;52867.72;;;-140.72;100.00
38197;BME280;26543;51.976;4.616;2022-10-17T03:02:41;52806.84;;;-140.72;100.00
38197;BME280;26543;51.976;4.616;2022-10-17T03:05:07;52837.28;;;-140.72;100.00
38197;BME280;26543;51.976;4.616;2022-10-17T03:07:33;52814.97;;;-140.72;100.00
38197;BME280;26543;51.976;4.616;2022-10-17T03:10:01;52831.19;;;-140.72;100.00
38197;BME280;26543;51.976;4.616;2022-10-17T03:12:57;52853.53;;;-140.72;100.00
38197;BME280;26543;51.976;4.616;2022-10-17T03:15:22;52833.22;;;-140.72;100.00
38197;BME280;26543;51.976;4.616;2022-10-17T03:17:47;52829.19;;;-140.72;100.00
38197;BME280;26543;51.976;4.616;2022-10-17T03:20:13;52829.19;;;-140.72;100.00
38197;BME280;26543;51.976;4.616;2022-10-17T03:22:38;52829.19;;;-140.72;100.00
38197;BME280;26543;51.976;4.616;2022-10-17T03:25:04;52821.06;;;-140.72;100.00
38197;BME280;26543;51.976;4.616;2022-10-17T03:27:31;52814.97;;;-140.72;100.00
38197;BME280;26543;51.976;4.616;2022-10-17T03:29:57;52821.06;;;-140.72;100.00
38197;BME280;26543;51.976;4.616;2022-10-17T03:32:22;52814.97;;;-140.72;100.00
38197;BME280;26543;51.976;4.616;2022-10-17T03:34:47;52845.41;;;-140.72;100.00
38197;BME280;26543;51.976;4.616;2022-10-17T03:37:13;52810.91;;;-140.72;100.00
38197;BME280;26543;51.976;4.616;2022-10-17T03:39:41;52865.69;;;-140.72;100.00
38197;BME280;26543;51.976;4.616;2022-10-17T03:42:06;52873.81;;;-140.72;100.00
38197;BME280;26543;51.976;4.616;2022-10-17T03:44:31;52835.25;;;-140.72;100.00
38197;BME280;26543;51.976;4.616;2022-10-17T03:46:57;52821.06;;;-140.72;100.00
38197;BME280;26543;51.976;4.616;2022-10-17T03:49:23;52814.97;;;-140.72;100.00
38197;BME280;26543;51.976;4.616;2022-10-17T03:51:48;52855.56;;;-140.72;100.00
38197;BME280;26543;51.976;4.616;2022-10-17T03:54:13;52821.06;;;-140.72;100.00
38197;BME280;26543;51.976;4.616;2022-10-17T03:56:39;52812.94;;;-140.72;100.00
38197;BME280;26543;51.976;4.616;2022-10-17T03:59:04;52798.72;;;-140.72;100.00
38197;BME280;26543;51.976;4.616;2022-10-17T04:01:29;52821.06;;;-140.72;100.00
38197;BME280;26543;51.976;4.616;2022-10-17T04:03:55;52831.19;;;-140.72;100.00
38197;BME280;26543;51.976;4.616;2022-10-17T04:06:22;52784.53;;;-140.72;100.00
38197;BME280;26543;51.976;4.616;2022-10-17T04:08:48;52825.13;;;-140.72;100.00
38197;BME280;26543;51.976;4.616;2022-10-17T04:11:19;52806.84;;;-140.72;100.00
38197;BME280;26543;51.976;4.616;2022-10-17T04:13:44;52796.72;;;-140.72;100.00
38197;BME280;26543;51.976;4.616;2022-10-17T04:16:14;52796.72;;;-140.72;100.00
38197;BME280;26543;51.976;4.616;2022-10-17T04:18:41;52796.72;;;-140.72;100.00
38197;BME280;26543;51.976;4.616;2022-10-17T04:21:07;52814.97;;;-140.72;100.00
38197;BME280;26543;51.976;4.616;2022-10-17T04:23:33;52823.09;;;-140.72;100.00
38197;BME280;26543;51.976;4.616;2022-10-17T04:25:59;52796.72;;;-140.72;100.00
38197;BME280;26543;51.976;4.616;2022-10-17T04:28:26;52827.16;;;-140.72;100.00
38197;BME280;26543;51.976;4.616;2022-10-17T04:31:04;52810.91;;;-140.72;100.00
38197;BME280;26543;51.976;4.616;2022-10-17T04:33:31;52825.13;;;-140.72;100.00
38197;BME280;26543;51.976;4.616;2022-10-17T04:36:04;52806.84;;;-140.72;100.00
38197;BME280;26543;51.976;4.616;2022-10-17T04:38:30;52800.75;;;-140.72;100.00
38197;BME280;26543;51.976;4.616;2022-10-17T04:40:57;52788.59;;;-140.72;100.00
38197;BME280;26543;51.976;4.616;2022-10-17T04:43:24;52829.19;;;-140.72;100.00
38197;BME280;26543;51.976;4.616;2022-10-17T04:45:49;52837.28;;;-140.72;100.00
38197;BME280;26543;51.976;4.616;2022-10-17T04:48:14;52833.22;;;-140.72;100.00
38197;BME280;26543;51.976;4.616;2022-10-17T04:50:40;52812.94;;;-140.72;100.00
38197;BME280;26543;51.976;4.616;2022-10-17T04:53:05;52808.88;;;-140.72;100.00
38197;BME280;26543;51.976;4.616;2022-10-17T04:55:30;52792.66;;;-140.72;100.00
38197;BME280;26543;51.976;4.616;2022-10-17T04:57:58;52810.91;;;-140.72;100.00
38197;BME280;26543;51.976;4.616;2022-10-17T05:00:24;52798.72;;;-140.72;100.00
38197;BME280;26543;51.976;4.616;2022-10-17T05:02:49;52814.97;;;-140.72;100.00
38197;BME280;26543;51.976;4.616;2022-10-17T05:05:15;52808.88;;;-140.72;100.00
38197;BME280;26543;51.976;4.616;2022-10-17T05:07:40;52808.88;;;-140.72;100.00
38197;BME280;26543;51.976;4.616;2022-10-17T05:10:06;52835.25;;;-140.72;100.00
38197;BME280;26543;51.976;4.616;2022-10-17T05:12:32;52800.75;;;-140.72;100.00
38197;BME280;26543;51.976;4.616;2022-10-17T05:14:57;52760.19;;;-140.72;100.00
38197;BME280;26543;51.976;4.616;2022-10-17T05:17:22;52800.75;;;-140.72;100.00
38197;BME280;26543;51.976;4.616;2022-10-17T05:19:48;52780.47;;;-140.72;100.00
38197;BME280;26543;51.976;4.616;2022-10-17T05:22:13;52817.00;;;-140.72;100.00
38197;BME280;26543;51.976;4.616;2022-10-17T05:24:38;52821.06;;;-140.72;100.00
38197;BME280;26543;51.976;4.616;2022-10-17T05:27:04;52792.66;;;-140.72;100.00
38197;BME280;26543;51.976;4.616;2022-10-17T05:29:29;52796.72;;;-140.72;100.00
38197;BME280;26543;51.976;4.616;2022-10-17T05:31:54;52806.84;;;-140.72;100.00
38197;BME280;26543;51.976;4.616;2022-10-17T05:34:20;52776.41;;;-140.72;100.00
38197;BME280;26543;51.976;4.616;2022-10-17T05:36:45;52855.56;;;-140.72;100.00
38197;BME280;26543;51.976;4.616;2022-10-17T05:39:12;52776.41;;;-140.72;100.00
38197;BME280;26543;51.976;4.616;2022-10-17T05:41:39;52812.94;;;-140.72;100.00
38197;BME280;26543;51.976;4.616;2022-10-17T05:44:05;52796.72;;;-140.72;100.00
38197;BME280;26543;51.976;4.616;2022-10-17T05:46:30;52808.88;;;-140.72;100.00
38197;BME280;26543;51.976;4.616;2022-10-17T05:48:56;52786.56;;;-140.72;100.00
38197;BME280;26543;51.976;4.616;2022-10-17T05:51:21;52817.00;;;-140.72;100.00
38197;BME280;26543;51.976;4.616;2022-10-17T05:53:46;52814.97;;;-140.72;100.00
38197;BME280;26543;51.976;4.616;2022-10-17T05:56:12;52800.75;;;-140.72;100.00
38197;BME280;26543;51.976;4.616;2022-10-17T05:58:40;52758.16;;;-140.72;100.00
38197;BME280;26543;51.976;4.616;2022-10-17T06:01:07;52782.50;;;-140.72;100.00
38197;BME280;26543;51.976;4.616;2022-10-17T06:03:33;52808.88;;;-140.72;100.00
38197;BME280;26543;51.976;4.616;2022-10-17T06:06:03;52853.53;;;-140.72;100.00
38197;BME280;26543;51.976;4.616;2022-10-17T06:08:29;52766.25;;;-140.72;100.00
38197;BME280;26543;51.976;4.616;2022-10-17T06:10:54;52743.94;;;-140.72;100.00
38197;BME280;26543;51.976;4.616;2022-10-17T06:13:20;52796.72;;;-140.72;100.00
38197;BME280;26543;51.976;4.616;2022-10-17T06:15:46;52812.94;;;-140.72;100.00
38197;BME280;26543;51.976;4.616;2022-10-17T06:18:11;52784.53;;;-140.72;100.00
38197;BME280;26543;51.976;4.616;2022-10-17T06:20:37;52731.75;;;-140.72;100.00
38197;BME280;26543;51.976;4.616;2022-10-17T06:23:02;52817.00;;;-140.72;100.00
38197;BME280;26543;51.976;4.616;2022-10-17T06:25:32;52804.81;;;-140.72;100.00
38197;BME280;26543;51.976;4.616;2022-10-17T06:28:00;52829.19;;;-140.72;100.00
38197;BME280;26543;51.976;4.616;2022-10-17T06:30:26;52817.00;;;-140.72;100.00
38197;BME280;26543;51.976;4.616;2022-10-17T06:32:52;52780.47;;;-140.72;100.00
38197;BME280;26543;51.976;4.616;2022-10-17T06:35:18;52800.75;;;-140.72;100.00
38197;BME280;26543;51.976;4.616;2022-10-17T06:37:43;52833.22;;;-140.72;100.00
38197;BME280;26543;51.976;4.616;2022-10-17T06:40:09;52810.91;;;-140.72;100.00
38197;BME280;26543;51.976;4.616;2022-10-17T06:42:37;52772.34;;;-140.72;100.00
38197;BME280;26543;51.976;4.616;2022-10-17T06:45:03;52800.75;;;-140.72;100.00
38197;BME280;26543;51.976;4.616;2022-10-17T06:47:29;52784.53;;;-140.72;100.00
38197;BME280;26543;51.976;4.616;2022-10-17T06:49:54;52810.91;;;-140.72;100.00
38197;BME280;26543;51.976;4.616;2022-10-17T06:52:19;52802.78;;;-140.72;100.00
38197;BME280;26543;51.976;4.616;2022-10-17T06:54:45;52788.59;;;-140.72;100.00
38197;BME280;26543;51.976;4.616;2022-10-17T06:57:11;52806.84;;;-140.72;100.00
38197;BME280;26543;51.976;4.616;2022-10-17T06:59:36;52804.81;;;-140.72;100.00
38197;BME280;26543;51.976;4.616;2022-10-17T07:02:02;52754.09;;;-140.72;100.00
38197;BME280;26543;51.976;4.616;2022-10-17T07:04:27;52798.72;;;-140.72;100.00
38197;BME280;26543;51.976;4.616;2022-10-17T07:06:53;52796.72;;;-140.72;100.00
38197;BME280;26543;51.976;4.616;2022-10-17T07:09:18;52768.28;;;-140.72;100.00
38197;BME280;26543;51.976;4.616;2022-10-17T07:11:44;52784.53;;;-140.72;100.00
38197;BME280;26543;51.976;4.616;2022-10-17T07:14:10;52778.44;;;-140.72;100.00
38197;BME280;26543;51.976;4.616;2022-10-17T07:16:35;52786.56;;;-140.72;100.00
38197;BME280;26543;51.976;4.616;2022-10-17T07:19:01;52790.63;;;-140.72;100.00
38197;BME280;26543;51.976;4.616;2022-10-17T07:21:26;52800.75;;;-140.72;100.00
38197;BME280;26543;51.976;4.616;2022-10-17T07:23:52;52810.91;;;-140.72;100.00
38197;BME280;26543;51.976;4.616;2022-10-17T07:26:18;52745.97;;;-140.72;100.00
38197;BME280;26543;51.976;4.616;2022-10-17T07:28:45;52782.50;;;-140.72;100.00
38197;BME280;26543;51.976;4.616;2022-10-17T07:31:13;52788.59;;;-140.72;100.00
38197;BME280;26543;51.976;4.616;2022-10-17T07:33:39;52796.72;;;-140.72;100.00
38197;BME280;26543;51.976;4.616;2022-10-17T07:36:05;52758.16;;;-140.72;100.00
38197;BME280;26543;51.976;4.616;2022-10-17T07:38:31;52772.34;;;-140.72;100.00
38197;BME280;26543;51.976;4.616;2022-10-17T07:41:01;52768.28;;;-140.72;100.00
38197;BME280;26543;51.976;4.616;2022-10-17T07:43:29;52772.34;;;-140.72;100.00
38197;BME280;26543;51.976;4.616;2022-10-17T07:45:55;52802.78;;;-140.72;100.00
38197;BME280;26543;51.976;4.616;2022-10-17T07:48:22;52794.69;;;-140.72;100.00
38197;BME280;26543;51.976;4.616;2022-10-17T07:50:51;52808.88;;;-140.72;100.00
38197;BME280;26543;51.976;4.616;2022-10-17T07:53:17;52758.16;;;-140.72;100.00
38197;BME280;26543;51.976;4.616;2022-10-17T07:55:42;52774.38;;;-140.72;100.00
38197;BME280;26543;51.976;4.616;2022-10-17T07:58:10;52764.25;;;-140.72;100.00
38197;BME280;26543;51.976;4.616;2022-10-17T08:00:36;52774.38;;;-140.72;100.00
38197;BME280;26543;51.976;4.616;2022-10-17T08:03:02;52776.41;;;-140.72;100.00
38197;BME280;26543;51.976;4.616;2022-10-17T08:05:28;52750.03;;;-140.72;100.00
38197;BME280;26543;51.976;4.616;2022-10-17T08:07:54;52762.22;;;-140.72;100.00
38197;BME280;26543;51.976;4.616;2022-10-17T08:10:19;52802.78;;;-140.72;100.00
38197;BME280;26543;51.976;4.616;2022-10-17T08:12:45;52796.72;;;-140.72;100.00
38197;BME280;26543;51.976;4.616;2022-10-17T08:15:11;52764.25;;;-140.72;100.00
38197;BME280;26543;51.976;4.616;2022-10-17T08:17:37;52784.53;;;-140.72;100.00
38197;BME280;26543;51.976;4.616;2022-10-17T08:20:05;52776.41;;;-140.72;100.00
38197;BME280;26543;51.976;4.616;2022-10-17T08:22:31;52782.50;;;-140.72;100.00
38197;BME280;26543;51.976;4.616;2022-10-17T08:24:56;52784.53;;;-140.72;100.00
38197;BME280;26543;51.976;4.616;2022-10-17T08:27:22;52743.94;;;-140.72;100.00
38197;BME280;26543;51.976;4.616;2022-10-17T08:29:53;52802.78;;;-140.72;100.00
38197;BME280;26543;51.976;4.616;2022-10-17T08:32:20;52721.63;;;-140.72;100.00
38197;BME280;26543;51.976;4.616;2022-10-17T08:34:45;52776.41;;;-140.72;100.00
38197;BME280;26543;51.976;4.616;2022-10-17T08:37:11;52741.91;;;-140.72;100.00
38197;BME280;26543;51.976;4.616;2022-10-17T08:39:39;52727.72;;;-140.72;100.00
38197;BME280;26543;51.976;4.616;2022-10-17T08:44:38;52798.72;;;-140.72;100.00
38197;BME280;26543;51.976;4.616;2022-10-17T08:47:13;52766.25;;;-140.72;100.00
38197;BME280;26543;51.976;4.616;2022-10-17T08:49:50;52798.72;;;-140.72;100.00
38197;BME280;26543;51.976;4.616;2022-10-17T08:52:33;52776.41;;;-140.72;100.00
38197;BME280;26543;51.976;4.616;2022-10-17T08:55:03;52780.47;;;-140.72;100.00
38197;BME280;26543;51.976;4.616;2022-10-17T08:57:29;52776.41;;;-140.72;100.00
38197;BME280;26543;51.976;4.616;2022-10-17T08:59:57;52739.88;;;-140.72;100.00
38197;BME280;26543;51.976;4.616;2022-10-17T09:05:22;52784.53;;;-140.72;100.00
38197;BME280;26543;51.976;4.616;2022-10-17T09:10:51;52768.28;;;-140.72;100.00
38197;BME280;26543;51.976;4.616;2022-10-17T09:19:10;52810.91;;;-140.72;100.00
38197;BME280;26543;51.976;4.616;2022-10-17T09:22:14;52762.22;;;-140.72;100.00
38197;BME280;26543;51.976;4.616;2022-10-17T09:24:53;52758.16;;;-140.72;100.00
38197;BME280;26543;51.976;4.616;2022-10-17T09:27:32;52750.03;;;-140.72;100.00
38197;BME280;26543;51.976;4.616;2022-10-17T09:30:27;52752.06;;;-140.72;100.00
38197;BME280;26543;51.976;4.616;2022-10-17T09:32:53;52735.81;;;-140.72;100.00
38197;BME280;26543;51.976;4.616;2022-10-17T09:35:19;52764.25;;;-140.72;100.00
38197;BME280;26543;51.976;4.616;2022-10-17T09:37:47;52772.34;;;-140.72;100.00
38197;BME280;26543;51.976;4.616;2022-10-17T09:40:29;52752.06;;;-140.72;100.00
38197;BME280;26543;51.976;4.616;2022-10-17T09:42:56;52788.59;;;-140.72;100.00
38197;BME280;26543;51.976;4.616;2022-10-17T09:45:23;52758.16;;;-140.72;100.00
38197;BME280;26543;51.976;4.616;2022-10-17T09:48:07;52780.47;;;-140.72;100.00
38197;BME280;26543;51.976;4.616;2022-10-17T09:50:35;52780.47;;;-140.72;100.00
38197;BME280;26543;51.976;4.616;2022-10-17T09:53:23;52756.13;;;-140.72;100.00
38197;BME280;26543;51.976;4.616;2022-10-17T09:55:54;52778.44;;;-140.72;100.00
38197;BME280;26543;51.976;4.616;2022-10-17T09:58:39;52794.69;;;-140.72;100.00
38197;BME280;26543;51.976;4.616;2022-10-17T10:01:18;52762.22;;;-140.72;100.00
38197;BME280;26543;51.976;4.616;2022-10-17T10:03:43;52756.13;;;-140.72;100.00
38197;BME280;26543;51.976;4.616;2022-10-17T10:06:16;52782.50;;;-140.72;100.00
38197;BME280;26543;51.976;4.616;2022-10-17T10:11:18;52790.63;;;-140.72;100.00
38197;BME280;26543;51.976;4.616;2022-10-17T10:13:45;52762.22;;;-140.72;100.00
38197;BME280;26543;51.976;4.616;2022-10-17T10:16:29;52784.53;;;-140.72;100.00
38197;BME280;26543;51.976;4.616;2022-10-17T10:18:57;52774.38;;;-140.72;100.00
38197;BME280;26543;51.976;4.616;2022-10-17T10:21:26;52770.31;;;-140.72;100.00
38197;BME280;26543;51.976;4.616;2022-10-17T10:29:02;52748.00;;;-140.72;100.00
38197;BME280;26543;51.976;4.616;2022-10-17T10:31:34;52784.53;;;-140.72;100.00
38197;BME280;26543;51.976;4.616;2022-10-17T10:34:09;52776.41;;;-140.72;100.00
38197;BME280;26543;51.976;4.616;2022-10-17T10:36:42;52735.81;;;-140.72;100.00
38197;BME280;26543;51.976;4.616;2022-10-17T10:42:05;52731.75;;;-140.72;100.00
38197;BME280;26543;51.976;4.616;2022-10-17T10:44:32;52778.44;;;-140.72;100.00
38197;BME280;26543;51.976;4.616;2022-10-17T10:47:16;52764.25;;;-140.72;100.00
38197;BME280;26543;51.976;4.616;2022-10-17T10:49:44;52776.41;;;-140.72;100.00
38197;BME280;26543;51.976;4.616;2022-10-17T10:52:29;52792.66;;;-140.72;100.00
38197;BME280;26543;51.976;4.616;2022-10-17T10:55:13;52739.88;;;-140.72;100.00
38197;BME280;26543;51.976;4.616;2022-10-17T10:57:42;52829.19;;;-140.72;100.00
38197;BME280;26543;51.976;4.616;2022-10-17T11:00:14;52792.66;;;-140.72;100.00
38197;BME280;26543;51.976;4.616;2022-10-17T11:08:25;52784.53;;;-140.72;100.00
38197;BME280;26543;51.976;4.616;2022-10-17T11:11:16;52776.41;;;-140.72;100.00
38197;BME280;26543;51.976;4.616;2022-10-17T11:14:12;52819.03;;;-140.72;100.00
38197;BME280;26543;51.976;4.616;2022-10-17T11:16:56;52800.75;;;-140.72;100.00
38197;BME280;26543;51.976;4.616;2022-10-17T11:24:41;52778.44;;;-140.72;100.00
38197;BME280;26543;51.976;4.616;2022-10-17T11:27:07;52804.81;;;-140.72;100.00
38197;BME280;26543;51.976;4.616;2022-10-17T11:29:36;52741.91;;;-140.72;100.00
38197;BME280;26543;51.976;4.616;2022-10-17T11:32:17;52806.84;;;-140.72;100.00
38197;BME280;26543;51.976;4.616;2022-10-17T11:34:49;52764.25;;;-140.72;100.00
38197;BME280;26543;51.976;4.616;2022-10-17T11:37:22;52756.13;;;-140.72;100.00
38197;BME280;26543;51.976;4.616;2022-10-17T11:39:59;52762.22;;;-140.72;100.00
38197;BME280;26543;51.976;4.616;2022-10-17T11:42:34;52752.06;;;-140.72;100.00
38197;BME280;26543;51.976;4.616;2022-10-17T11:45:15;52752.06;;;-140.72;100.00
38197;BME280;26543;51.976;4.616;2022-10-17T11:47:57;52762.22;;;-140.72;100.00
38197;BME280;26543;51.976;4.616;2022-10-17T11:50:42;52725.69;;;-140.72;100.00
38197;BME280;26543;51.976;4.616;2022-10-17T11:53:16;52760.19;;;-140.72;100.00
38197;BME280;26543;51.976;4.616;2022-10-17T11:55:44;52754.09;;;-140.72;100.00
38197;BME280;26543;51.976;4.616;2022-10-17T12:06:33;52705.38;;;-140.72;100.00
38197;BME280;26543;51.976;4.616;2022-10-17T12:17:29;52748.00;;;-140.72;100.00
38197;BME280;26543;51.976;4.616;2022-10-17T12:22:46;52735.81;;;-140.72;100.00
38197;BME280;26543;51.976;4.616;2022-10-17T12:25:18;52743.94;;;-140.72;100.00
38197;BME280;26543;51.976;4.616;2022-10-17T12:27:45;52756.13;;;-140.72;100.00
38197;BME280;26543;51.976;4.616;2022-10-17T12:35:22;52770.31;;;-140.72;100.00
38197;BME280;26543;51.976;4.616;2022-10-17T12:51:17;52687.13;;;-140.72;100.00
38197;BME280;26543;51.976;4.616;2022-10-17T12:56:30;52752.06;;;-140.72;100.00
38197;BME280;26543;51.976;4.616;2022-10-17T12:58:55;52699.31;;;-140.72;100.00
38197;BME280;26543;51.976;4.616;2022-10-17T13:01:33;52741.91;;;-140.72;100.00
38197;BME280;26543;51.976;4.616;2022-10-17T13:04:00;52723.66;;;-140.72;100.00
38197;BME280;26543;51.976;4.616;2022-10-17T13:06:31;52717.56;;;-140.72;100.00
38197;BME280;26543;51.976;4.616;2022-10-17T13:09:34;52754.09;;;-140.72;100.00
38197;BME280;26543;51.976;4.616;2022-10-17T13:12:02;52731.75;;;-140.72;100.00
38197;BME280;26543;51.976;4.616;2022-10-17T13:14:30;52715.53;;;-140.72;100.00
38197;BME280;26543;51.976;4.616;2022-10-17T13:17:02;52737.84;;;-140.72;100.00
38197;BME280;26543;51.976;4.616;2022-10-17T13:19:31;52760.19;;;-140.72;100.00
38197;BME280;26543;51.976;4.616;2022-10-17T13:22:10;52737.84;;;-140.72;100.00
38197;BME280;26543;51.976;4.616;2022-10-17T13:24:38;52743.94;;;-140.72;100.00
38197;BME280;26543;51.976;4.616;2022-10-17T13:27:20;52758.16;;;-140.72;100.00
38197;BME280;26543;51.976;4.616;2022-10-17T13:29:46;52748.00;;;-140.72;100.00
38197;BME280;26543;51.976;4.616;2022-10-17T13:32:11;52748.00;;;-140.72;100.00
38197;BME280;26543;51.976;4.616;2022-10-17T13:34:37;52737.84;;;-140.72;100.00
38197;BME280;26543;51.976;4.616;2022-10-17T13:37:09;52729.75;;;-140.72;100.00
38197;BME280;26543;51.976;4.616;2022-10-17T13:39:39;52709.44;;;-140.72;100.00
38197;BME280;26543;51.976;4.616;2022-10-17T13:42:12;52725.69;;;-140.72;100.00
38197;BME280;26543;51.976;4.616;2022-10-17T13:44:40;52721.63;;;-140.72;100.00
38197;BME280;26543;51.976;4.616;2022-10-17T13:49:48;52729.75;;;-140.72;100.00
38197;BME280;26543;51.976;4.616;2022-10-17T13:52:17;52703.34;;;-140.72;100.00
38197;BME280;26543;51.976;4.616;2022-10-17T13:54:45;52693.22;;;-140.72;100.00
38197;BME280;26543;51.976;4.616;2022-10-17T13:57:25;52685.09;;;-140.72;100.00
38197;BME280;26543;51.976;4.616;2022-10-17T13:59:53;52750.03;;;-140.72;100.00
38197;BME280;26543;51.976;4.616;2022-10-17T14:02:24;52723.66;;;-140.72;100.00
38197;BME280;26543;51.976;4.616;2022-10-17T14:05:11;52699.31;;;-140.72;100.00
38197;BME280;26543;51.976;4.616;2022-10-17T14:07:48;52646.53;;;-140.72;100.00
38197;BME280;26543;51.976;4.616;2022-10-17T14:10:33;52745.97;;;-140.72;100.00
38197;BME280;26543;51.976;4.616;2022-10-17T14:12:59;52705.38;;;-140.72;100.00
38197;BME280;26543;51.976;4.616;2022-10-17T14:15:28;52707.41;;;-140.72;100.00
38197;BME280;26543;51.976;4.616;2022-10-17T14:17:58;52699.31;;;-140.72;100.00
38197;BME280;26543;51.976;4.616;2022-10-17T14:20:25;52719.59;;;-140.72;100.00
38197;BME280;26543;51.976;4.616;2022-10-17T14:22:55;52666.84;;;-140.72;100.00
38197;BME280;26543;51.976;4.616;2022-10-17T14:30:38;52745.97;;;-140.72;100.00
38197;BME280;26543;51.976;4.616;2022-10-17T14:33:07;52719.59;;;-140.72;100.00
38197;BME280;26543;51.976;4.616;2022-10-17T14:35:34;52727.72;;;-140.72;100.00